Bertem, Belgium
Current Conditions -  °F | °C
As of 3:50 AM on Monday 22 Dec 2014 (Local Time) from EBBR Reporting Station
Broken Clouds Broken Clouds  
Wind Chill: 40°   Ceiling: 1500
Heat Index: 48°   Visibility: 6mi
Dew Point: 43°   Wind: 26mph
Humidity: 82%   Direction: 230°SW
Pressure: 30.18"   Gusts: NA
Location:  50.86°N, 4.63°E
Report Text: EBBR 220250Z 23023KT 9999 BKN015 BKN018 09/06 Q1022 TEMPO 23026G36KT
Loading
Personal Weather Stations






























Interactive Weather Map New forecast layout! Learn more

10-Day Weather Forecast

Advertisements
Track Severe Weather on mobile